This is the latest recevied weather packets stored in our database for station/object CT1ETE-13. If no packets are shown the sender has not sent any weather packets the latest 10 day(s).
| Time | Temp. | Humidity | Pressure | Rain* | Wind** | Luminosity | Snow |
|---|---|---|---|---|---|---|---|
| 1787864874 | 15° C | 85% | 1017.8 hPa | 0 mm | - | 1464 W/m² | - |
| 1787863972 | 15° C | 85% | 1017.7 hPa | 0 mm | - | 1464 W/m² | - |
| 1787863131 | 15° C | 84% | 1017.4 hPa | 0 mm | - | 1466 W/m² | - |
| 1787862230 | 15° C | 84% | 1017.1 hPa | 0 mm | - | 1466 W/m² | - |
| 1787861270 | 15° C | 84% | 1016.9 hPa | 0 mm | - | 1466 W/m² | - |
| 1787860370 | 15° C | 82% | 1016.7 hPa | 0 mm | - | 1463 W/m² | - |
| 1787859470 | 15.56° C | 81% | 1016.5 hPa | 0 mm | - | 1459 W/m² | - |
| 1787858570 | 15.56° C | 79% | 1016.1 hPa | 0 mm | - | 1450 W/m² | - |
| 1787857731 | 16.11° C | 77% | 1016 hPa | 0 mm | - | 1452 W/m² | - |
| 1787856771 | 16.67° C | 74% | 1015.7 hPa | 0 mm | - | 1448 W/m² | - |
| 1787855930 | 16.67° C | 76% | 1015.6 hPa | 0 mm | - | 1447 W/m² | - |
| 1787854970 | 16.67° C | 76% | 1015.2 hPa | 0 mm | - | 1445 W/m² | - |
| 1787854070 | 16.67° C | 78% | 1015 hPa | 0 mm | - | 1448 W/m² | - |
| 1787853170 | 17.22° C | 78% | 1014.9 hPa | 0 mm | - | 1440 W/m² | - |
| 1787852329 | 17.78° C | 75% | 1014.8 hPa | 0 mm | - | 1429 W/m² | - |
| 1787851362 | 17.78° C | 74% | 1014.6 hPa | 0 mm | - | 1440 W/m² | - |
| 1787850462 | 17.22° C | 75% | 1014.4 hPa | 0 mm | - | 1447 W/m² | - |
| 1787849562 | 17.22° C | 75% | 1014.2 hPa | 0 mm | - | 1447 W/m² | - |
| 1787848662 | 17.22° C | 77% | 1014 hPa | 0 mm | - | 1450 W/m² | - |
| 1787847822 | 17.22° C | 79% | 1013.9 hPa | 0 mm | - | 1452 W/m² | - |
| 1787846870 | 17.22° C | 81% | 1013.8 hPa | 1.02 mm | - | 1450 W/m² | - |
| 1787845958 | 16.67° C | 84% | 1013.6 hPa | 1.27 mm | - | 1454 W/m² | - |
| 1787845056 | 15.56° C | 84% | 1013.5 hPa | 1.27 mm | - | 1464 W/m² | - |
| 1787844156 | 15.56° C | 85% | 1013.4 hPa | 1.27 mm | - | 1466 W/m² | - |
| 1787843256 | 16.11° C | 83% | 1013.2 hPa | 0.25 mm | - | 1459 W/m² | - |
* Rain latest hour (hover to see other rain measurements)
** Current wind speed in m/s (hover to see current wind gust speed)